Atwater, Minnesota
Current Conditions -  °F | °C
As of 3:33 PM on Thursday 27 Nov 2014 (Local Time) from KLJF Reporting Station
Clear Clear  
Wind Chill: -3°   Ceiling: Unl
Heat Index:   Visibility: 10mi
Dew Point: -2°   Wind: 6mph
Humidity: 67%   Direction: 150°SSE
Pressure: 30.38"   Gusts: NA
Location:  45.14°N, 94.78°W
Report Text: KLJF 272133Z AUTO 15005KT 10SM CLR M14/M19 A3038 RMK AO2
Loading
Personal Weather Stations






























Interactive Weather Map New forecast layout! Learn more

10-Day Weather Forecast

Advertisements
Track Severe Weather on mobile